sensor_id;sensor_type;location;lat;lon;timestamp;P1;durP1;ratioP1;P2;durP2;ratioP2
1977;SDS011;989;53.016;8.346;2022-12-16T00:02:01;40.10;;;17.33;;
1977;SDS011;989;53.016;8.346;2022-12-16T00:04:26;38.73;;;16.07;;
1977;SDS011;989;53.016;8.346;2022-12-16T00:06:52;55.27;;;20.77;;
1977;SDS011;989;53.016;8.346;2022-12-16T00:09:18;32.43;;;14.30;;
1977;SDS011;989;53.016;8.346;2022-12-16T00:11:44;40.20;;;17.90;;
1977;SDS011;989;53.016;8.346;2022-12-16T00:14:09;28.87;;;14.87;;
1977;SDS011;989;53.016;8.346;2022-12-16T00:16:35;34.73;;;14.10;;
1977;SDS011;989;53.016;8.346;2022-12-16T00:19:01;36.10;;;15.80;;
1977;SDS011;989;53.016;8.346;2022-12-16T00:21:27;30.70;;;16.20;;
1977;SDS011;989;53.016;8.346;2022-12-16T00:23:54;36.70;;;16.98;;
1977;SDS011;989;53.016;8.346;2022-12-16T00:26:21;44.50;;;17.98;;
1977;SDS011;989;53.016;8.346;2022-12-16T00:28:47;33.33;;;14.77;;
1977;SDS011;989;53.016;8.346;2022-12-16T00:31:12;46.33;;;16.47;;
1977;SDS011;989;53.016;8.346;2022-12-16T00:33:38;29.47;;;15.47;;
1977;SDS011;989;53.016;8.346;2022-12-16T00:36:04;29.88;;;15.63;;
1977;SDS011;989;53.016;8.346;2022-12-16T00:38:30;35.15;;;17.42;;
1977;SDS011;989;53.016;8.346;2022-12-16T00:40:56;29.73;;;14.50;;
1977;SDS011;989;53.016;8.346;2022-12-16T00:43:22;33.77;;;17.20;;
1977;SDS011;989;53.016;8.346;2022-12-16T00:45:47;46.90;;;16.80;;
1977;SDS011;989;53.016;8.346;2022-12-16T00:48:14;45.58;;;17.38;;
1977;SDS011;989;53.016;8.346;2022-12-16T00:50:40;33.63;;;15.35;;
1977;SDS011;989;53.016;8.346;2022-12-16T00:53:10;37.90;;;16.65;;
1977;SDS011;989;53.016;8.346;2022-12-16T00:55:35;33.67;;;16.10;;
1977;SDS011;989;53.016;8.346;2022-12-16T00:58:01;30.53;;;14.97;;
1977;SDS011;989;53.016;8.346;2022-12-16T01:00:26;36.67;;;18.30;;
1977;SDS011;989;53.016;8.346;2022-12-16T01:02:52;26.97;;;13.83;;
1977;SDS011;989;53.016;8.346;2022-12-16T01:05:19;39.80;;;17.60;;
1977;SDS011;989;53.016;8.346;2022-12-16T01:07:50;33.17;;;16.20;;
1977;SDS011;989;53.016;8.346;2022-12-16T01:10:18;30.30;;;14.43;;
1977;SDS011;989;53.016;8.346;2022-12-16T01:12:44;36.00;;;15.70;;
1977;SDS011;989;53.016;8.346;2022-12-16T01:15:10;36.63;;;16.90;;
1977;SDS011;989;53.016;8.346;2022-12-16T01:17:38;29.42;;;16.50;;
1977;SDS011;989;53.016;8.346;2022-12-16T01:20:05;41.20;;;16.25;;
1977;SDS011;989;53.016;8.346;2022-12-16T01:22:33;40.22;;;15.10;;
1977;SDS011;989;53.016;8.346;2022-12-16T01:24:59;40.47;;;15.60;;
1977;SDS011;989;53.016;8.346;2022-12-16T01:27:26;29.30;;;16.13;;
1977;SDS011;989;53.016;8.346;2022-12-16T01:29:52;24.20;;;12.68;;
1977;SDS011;989;53.016;8.346;2022-12-16T01:32:18;29.93;;;13.03;;
1977;SDS011;989;53.016;8.346;2022-12-16T01:34:49;35.25;;;15.57;;
1977;SDS011;989;53.016;8.346;2022-12-16T01:37:15;40.35;;;16.38;;
1977;SDS011;989;53.016;8.346;2022-12-16T01:39:41;27.80;;;11.67;;
1977;SDS011;989;53.016;8.346;2022-12-16T01:42:18;37.40;;;17.47;;
1977;SDS011;989;53.016;8.346;2022-12-16T01:44:46;41.75;;;16.42;;
1977;SDS011;989;53.016;8.346;2022-12-16T01:47:18;30.25;;;13.55;;
1977;SDS011;989;53.016;8.346;2022-12-16T01:49:55;34.70;;;17.48;;
1977;SDS011;989;53.016;8.346;2022-12-16T01:52:33;33.22;;;14.75;;
1977;SDS011;989;53.016;8.346;2022-12-16T01:55:16;38.85;;;15.70;;
1977;SDS011;989;53.016;8.346;2022-12-16T01:57:48;48.53;;;16.50;;
1977;SDS011;989;53.016;8.346;2022-12-16T02:00:26;40.00;;;17.38;;
1977;SDS011;989;53.016;8.346;2022-12-16T02:02:52;35.47;;;15.20;;
1977;SDS011;989;53.016;8.346;2022-12-16T02:05:19;29.65;;;14.68;;
1977;SDS011;989;53.016;8.346;2022-12-16T02:08:00;26.77;;;13.68;;
1977;SDS011;989;53.016;8.346;2022-12-16T02:10:42;33.80;;;15.45;;
1977;SDS011;989;53.016;8.346;2022-12-16T02:13:13;33.40;;;15.23;;
1977;SDS011;989;53.016;8.346;2022-12-16T02:24:13;28.27;;;14.60;;
1977;SDS011;989;53.016;8.346;2022-12-16T02:27:09;34.72;;;16.67;;
1977;SDS011;989;53.016;8.346;2022-12-16T02:38:55;29.88;;;15.18;;
1977;SDS011;989;53.016;8.346;2022-12-16T02:47:40;32.03;;;15.05;;
1977;SDS011;989;53.016;8.346;2022-12-16T02:50:48;29.73;;;16.53;;
1977;SDS011;989;53.016;8.346;2022-12-16T02:53:02;51.45;;;18.30;;
1977;SDS011;989;53.016;8.346;2022-12-16T02:55:32;43.85;;;16.88;;
1977;SDS011;989;53.016;8.346;2022-12-16T02:58:24;32.05;;;14.40;;
1977;SDS011;989;53.016;8.346;2022-12-16T03:01:16;37.10;;;17.15;;
1977;SDS011;989;53.016;8.346;2022-12-16T03:04:34;30.45;;;16.98;;
1977;SDS011;989;53.016;8.346;2022-12-16T03:07:08;30.35;;;15.80;;
1977;SDS011;989;53.016;8.346;2022-12-16T03:09:38;33.78;;;16.00;;
1977;SDS011;989;53.016;8.346;2022-12-16T03:12:07;31.60;;;17.13;;
1977;SDS011;989;53.016;8.346;2022-12-16T03:14:38;38.00;;;16.05;;
1977;SDS011;989;53.016;8.346;2022-12-16T03:17:07;37.28;;;17.17;;
1977;SDS011;989;53.016;8.346;2022-12-16T03:19:34;36.72;;;16.33;;
1977;SDS011;989;53.016;8.346;2022-12-16T03:22:05;39.10;;;16.52;;
1977;SDS011;989;53.016;8.346;2022-12-16T03:24:36;33.40;;;17.33;;
1977;SDS011;989;53.016;8.346;2022-12-16T03:38:05;40.35;;;17.83;;
1977;SDS011;989;53.016;8.346;2022-12-16T03:40:34;42.17;;;19.05;;
1977;SDS011;989;53.016;8.346;2022-12-16T03:43:02;38.53;;;15.70;;
1977;SDS011;989;53.016;8.346;2022-12-16T03:45:36;27.50;;;14.63;;
1977;SDS011;989;53.016;8.346;2022-12-16T03:48:05;29.65;;;14.50;;
1977;SDS011;989;53.016;8.346;2022-12-16T03:50:33;43.53;;;15.65;;
1977;SDS011;989;53.016;8.346;2022-12-16T03:53:01;41.17;;;15.73;;
1977;SDS011;989;53.016;8.346;2022-12-16T03:55:27;33.20;;;15.00;;
1977;SDS011;989;53.016;8.346;2022-12-16T03:57:53;39.17;;;17.95;;
1977;SDS011;989;53.016;8.346;2022-12-16T04:00:19;37.87;;;16.40;;
1977;SDS011;989;53.016;8.346;2022-12-16T04:02:45;28.52;;;15.98;;
1977;SDS011;989;53.016;8.346;2022-12-16T04:05:11;35.13;;;15.87;;
1977;SDS011;989;53.016;8.346;2022-12-16T04:07:37;45.57;;;20.20;;
1977;SDS011;989;53.016;8.346;2022-12-16T04:10:03;38.97;;;19.00;;
1977;SDS011;989;53.016;8.346;2022-12-16T04:12:30;37.05;;;16.58;;
1977;SDS011;989;53.016;8.346;2022-12-16T04:15:14;38.08;;;17.13;;
1977;SDS011;989;53.016;8.346;2022-12-16T04:17:58;30.67;;;17.77;;
1977;SDS011;989;53.016;8.346;2022-12-16T04:20:43;33.03;;;16.27;;
1977;SDS011;989;53.016;8.346;2022-12-16T04:23:32;40.55;;;18.02;;
1977;SDS011;989;53.016;8.346;2022-12-16T04:26:18;26.63;;;14.25;;
1977;SDS011;989;53.016;8.346;2022-12-16T04:28:45;56.60;;;16.35;;
1977;SDS011;989;53.016;8.346;2022-12-16T04:31:10;32.50;;;17.27;;
1977;SDS011;989;53.016;8.346;2022-12-16T04:33:36;40.10;;;16.80;;
1977;SDS011;989;53.016;8.346;2022-12-16T04:36:21;28.48;;;13.63;;
1977;SDS011;989;53.016;8.346;2022-12-16T04:39:22;33.13;;;17.38;;
1977;SDS011;989;53.016;8.346;2022-12-16T04:42:06;38.30;;;16.17;;
1977;SDS011;989;53.016;8.346;2022-12-16T04:44:50;34.35;;;16.33;;
1977;SDS011;989;53.016;8.346;2022-12-16T04:47:34;42.42;;;14.52;;
1977;SDS011;989;53.016;8.346;2022-12-16T04:50:19;33.42;;;16.73;;
1977;SDS011;989;53.016;8.346;2022-12-16T04:53:03;31.77;;;16.92;;
1977;SDS011;989;53.016;8.346;2022-12-16T04:55:47;34.97;;;14.75;;
1977;SDS011;989;53.016;8.346;2022-12-16T04:58:31;29.55;;;16.25;;
1977;SDS011;989;53.016;8.346;2022-12-16T05:01:16;37.22;;;16.48;;
1977;SDS011;989;53.016;8.346;2022-12-16T05:04:00;32.95;;;16.45;;
1977;SDS011;989;53.016;8.346;2022-12-16T05:06:45;32.15;;;16.48;;
1977;SDS011;989;53.016;8.346;2022-12-16T05:09:29;34.13;;;16.02;;
1977;SDS011;989;53.016;8.346;2022-12-16T05:12:13;34.80;;;15.52;;
1977;SDS011;989;53.016;8.346;2022-12-16T05:15:17;37.42;;;17.15;;
1977;SDS011;989;53.016;8.346;2022-12-16T05:18:11;39.63;;;17.60;;
1977;SDS011;989;53.016;8.346;2022-12-16T05:20:59;34.05;;;15.10;;
1977;SDS011;989;53.016;8.346;2022-12-16T05:23:45;40.63;;;20.30;;
1977;SDS011;989;53.016;8.346;2022-12-16T05:26:30;31.55;;;15.27;;
1977;SDS011;989;53.016;8.346;2022-12-16T05:29:15;34.05;;;15.85;;
1977;SDS011;989;53.016;8.346;2022-12-16T05:31:59;37.80;;;17.95;;
1977;SDS011;989;53.016;8.346;2022-12-16T05:34:43;34.28;;;15.23;;
1977;SDS011;989;53.016;8.346;2022-12-16T05:37:28;34.70;;;16.70;;
1977;SDS011;989;53.016;8.346;2022-12-16T05:40:12;38.92;;;17.33;;
1977;SDS011;989;53.016;8.346;2022-12-16T05:42:56;38.42;;;17.70;;
1977;SDS011;989;53.016;8.346;2022-12-16T05:45:41;31.15;;;16.23;;
1977;SDS011;989;53.016;8.346;2022-12-16T05:48:25;41.15;;;17.48;;
1977;SDS011;989;53.016;8.346;2022-12-16T05:51:10;33.42;;;17.13;;
1977;SDS011;989;53.016;8.346;2022-12-16T05:53:54;32.33;;;15.77;;
1977;SDS011;989;53.016;8.346;2022-12-16T05:56:39;40.53;;;17.70;;
1977;SDS011;989;53.016;8.346;2022-12-16T05:59:23;35.15;;;16.13;;
1977;SDS011;989;53.016;8.346;2022-12-16T06:02:07;42.80;;;18.25;;
1977;SDS011;989;53.016;8.346;2022-12-16T06:04:52;35.80;;;17.25;;
1977;SDS011;989;53.016;8.346;2022-12-16T06:07:36;37.47;;;14.98;;
1977;SDS011;989;53.016;8.346;2022-12-16T06:10:20;44.15;;;17.77;;
1977;SDS011;989;53.016;8.346;2022-12-16T06:13:05;37.85;;;17.00;;
1977;SDS011;989;53.016;8.346;2022-12-16T06:15:49;36.70;;;16.63;;
1977;SDS011;989;53.016;8.346;2022-12-16T06:18:33;46.55;;;19.40;;
1977;SDS011;989;53.016;8.346;2022-12-16T06:21:18;34.28;;;17.52;;
1977;SDS011;989;53.016;8.346;2022-12-16T06:24:02;30.30;;;15.45;;
1977;SDS011;989;53.016;8.346;2022-12-16T06:26:47;35.80;;;16.50;;
1977;SDS011;989;53.016;8.346;2022-12-16T06:29:51;36.10;;;17.52;;
1977;SDS011;989;53.016;8.346;2022-12-16T06:32:35;29.80;;;15.95;;
1977;SDS011;989;53.016;8.346;2022-12-16T06:35:19;37.10;;;16.95;;
1977;SDS011;989;53.016;8.346;2022-12-16T06:38:03;29.33;;;14.32;;
1977;SDS011;989;53.016;8.346;2022-12-16T06:40:47;37.83;;;17.05;;
1977;SDS011;989;53.016;8.346;2022-12-16T06:43:32;39.30;;;18.23;;
1977;SDS011;989;53.016;8.346;2022-12-16T06:46:16;42.85;;;18.45;;
1977;SDS011;989;53.016;8.346;2022-12-16T06:49:01;32.67;;;16.42;;
1977;SDS011;989;53.016;8.346;2022-12-16T06:51:46;40.83;;;17.25;;
1977;SDS011;989;53.016;8.346;2022-12-16T06:54:30;41.78;;;18.15;;
1977;SDS011;989;53.016;8.346;2022-12-16T06:57:14;35.03;;;18.10;;
1977;SDS011;989;53.016;8.346;2022-12-16T06:59:58;41.33;;;18.38;;
1977;SDS011;989;53.016;8.346;2022-12-16T07:02:43;45.15;;;20.63;;
1977;SDS011;989;53.016;8.346;2022-12-16T07:05:27;33.03;;;17.08;;
1977;SDS011;989;53.016;8.346;2022-12-16T07:08:13;35.47;;;17.73;;
1977;SDS011;989;53.016;8.346;2022-12-16T07:10:57;31.52;;;16.40;;
1977;SDS011;989;53.016;8.346;2022-12-16T07:13:41;30.25;;;16.95;;
1977;SDS011;989;53.016;8.346;2022-12-16T07:16:25;28.17;;;16.38;;
1977;SDS011;989;53.016;8.346;2022-12-16T07:19:10;33.10;;;16.15;;
1977;SDS011;989;53.016;8.346;2022-12-16T07:21:54;36.22;;;17.90;;
1977;SDS011;989;53.016;8.346;2022-12-16T07:24:38;39.13;;;18.40;;
1977;SDS011;989;53.016;8.346;2022-12-16T07:27:23;34.03;;;19.58;;
1977;SDS011;989;53.016;8.346;2022-12-16T07:30:07;27.83;;;15.57;;
1977;SDS011;989;53.016;8.346;2022-12-16T07:32:52;32.80;;;15.93;;
1977;SDS011;989;53.016;8.346;2022-12-16T07:35:36;26.20;;;13.88;;
1977;SDS011;989;53.016;8.346;2022-12-16T07:38:21;38.08;;;17.85;;
1977;SDS011;989;53.016;8.346;2022-12-16T07:41:05;36.42;;;17.00;;
1977;SDS011;989;53.016;8.346;2022-12-16T07:43:49;40.25;;;18.48;;
1977;SDS011;989;53.016;8.346;2022-12-16T07:46:50;35.97;;;17.88;;
1977;SDS011;989;53.016;8.346;2022-12-16T07:49:34;31.20;;;17.92;;
1977;SDS011;989;53.016;8.346;2022-12-16T07:52:19;37.85;;;19.88;;
1977;SDS011;989;53.016;8.346;2022-12-16T07:55:03;41.70;;;19.13;;
1977;SDS011;989;53.016;8.346;2022-12-16T07:57:49;42.10;;;19.63;;
1977;SDS011;989;53.016;8.346;2022-12-16T08:00:33;48.10;;;20.25;;
1977;SDS011;989;53.016;8.346;2022-12-16T08:03:17;38.30;;;18.48;;
1977;SDS011;989;53.016;8.346;2022-12-16T08:06:02;49.08;;;20.83;;
1977;SDS011;989;53.016;8.346;2022-12-16T08:08:46;37.03;;;18.50;;
1977;SDS011;989;53.016;8.346;2022-12-16T08:11:31;37.35;;;17.52;;
1977;SDS011;989;53.016;8.346;2022-12-16T08:14:18;41.88;;;19.23;;
1977;SDS011;989;53.016;8.346;2022-12-16T08:17:02;45.70;;;19.75;;
1977;SDS011;989;53.016;8.346;2022-12-16T08:19:47;41.70;;;20.70;;
1977;SDS011;989;53.016;8.346;2022-12-16T08:22:31;78.78;;;20.25;;
1977;SDS011;989;53.016;8.346;2022-12-16T08:25:15;37.85;;;17.92;;
1977;SDS011;989;53.016;8.346;2022-12-16T08:28:00;53.00;;;21.88;;
1977;SDS011;989;53.016;8.346;2022-12-16T08:30:48;59.03;;;20.45;;
1977;SDS011;989;53.016;8.346;2022-12-16T08:33:34;42.92;;;19.55;;
1977;SDS011;989;53.016;8.346;2022-12-16T08:36:18;54.75;;;19.52;;
1977;SDS011;989;53.016;8.346;2022-12-16T08:39:03;44.35;;;18.92;;
1977;SDS011;989;53.016;8.346;2022-12-16T08:41:47;43.22;;;20.83;;
1977;SDS011;989;53.016;8.346;2022-12-16T08:44:32;41.75;;;17.80;;
1977;SDS011;989;53.016;8.346;2022-12-16T08:47:16;49.10;;;19.65;;
1977;SDS011;989;53.016;8.346;2022-12-16T08:50:00;42.45;;;19.00;;
1977;SDS011;989;53.016;8.346;2022-12-16T08:52:44;56.03;;;19.58;;
1977;SDS011;989;53.016;8.346;2022-12-16T08:55:29;40.33;;;17.40;;
1977;SDS011;989;53.016;8.346;2022-12-16T08:58:13;53.58;;;18.88;;
1977;SDS011;989;53.016;8.346;2022-12-16T09:00:58;52.42;;;21.85;;
1977;SDS011;989;53.016;8.346;2022-12-16T09:03:42;49.40;;;18.90;;
1977;SDS011;989;53.016;8.346;2022-12-16T09:06:26;45.17;;;20.85;;
1977;SDS011;989;53.016;8.346;2022-12-16T09:09:10;51.45;;;22.08;;
1977;SDS011;989;53.016;8.346;2022-12-16T09:11:54;50.35;;;20.45;;
1977;SDS011;989;53.016;8.346;2022-12-16T09:14:39;44.65;;;19.60;;
1977;SDS011;989;53.016;8.346;2022-12-16T09:17:23;39.53;;;19.63;;
1977;SDS011;989;53.016;8.346;2022-12-16T09:20:18;53.05;;;18.40;;
1977;SDS011;989;53.016;8.346;2022-12-16T09:23:03;51.08;;;20.88;;
1977;SDS011;989;53.016;8.346;2022-12-16T09:25:47;42.45;;;18.38;;
1977;SDS011;989;53.016;8.346;2022-12-16T09:28:31;60.78;;;22.20;;
1977;SDS011;989;53.016;8.346;2022-12-16T09:31:16;49.00;;;21.38;;
1977;SDS011;989;53.016;8.346;2022-12-16T09:34:00;50.30;;;21.40;;
1977;SDS011;989;53.016;8.346;2022-12-16T09:36:45;55.13;;;22.30;;
1977;SDS011;989;53.016;8.346;2022-12-16T09:39:29;49.13;;;21.98;;
1977;SDS011;989;53.016;8.346;2022-12-16T09:51:49;48.50;;;25.75;;
1977;SDS011;989;53.016;8.346;2022-12-16T09:54:36;100.78;;;28.85;;
1977;SDS011;989;53.016;8.346;2022-12-16T09:57:22;65.78;;;25.65;;
1977;SDS011;989;53.016;8.346;2022-12-16T10:00:11;85.03;;;28.02;;
1977;SDS011;989;53.016;8.346;2022-12-16T10:03:07;54.00;;;23.90;;
1977;SDS011;989;53.016;8.346;2022-12-16T10:09:28;49.10;;;25.13;;
1977;SDS011;989;53.016;8.346;2022-12-16T10:12:29;70.90;;;22.98;;
1977;SDS011;989;53.016;8.346;2022-12-16T10:21:52;55.50;;;25.45;;
1977;SDS011;989;53.016;8.346;2022-12-16T10:28:23;45.85;;;22.10;;
1977;SDS011;989;53.016;8.346;2022-12-16T10:31:27;61.00;;;24.25;;
1977;SDS011;989;53.016;8.346;2022-12-16T10:34:13;63.45;;;23.90;;
1977;SDS011;989;53.016;8.346;2022-12-16T10:37:02;60.60;;;24.73;;
1977;SDS011;989;53.016;8.346;2022-12-16T10:39:50;65.30;;;24.83;;
1977;SDS011;989;53.016;8.346;2022-12-16T10:42:44;49.90;;;28.00;;
1977;SDS011;989;53.016;8.346;2022-12-16T10:45:39;58.58;;;25.63;;
1977;SDS011;989;53.016;8.346;2022-12-16T10:48:28;60.53;;;26.30;;
1977;SDS011;989;53.016;8.346;2022-12-16T10:51:14;64.93;;;26.98;;
1977;SDS011;989;53.016;8.346;2022-12-16T10:54:20;62.40;;;24.50;;
1977;SDS011;989;53.016;8.346;2022-12-16T10:57:57;61.05;;;25.70;;
1977;SDS011;989;53.016;8.346;2022-12-16T11:00:49;70.13;;;26.55;;
1977;SDS011;989;53.016;8.346;2022-12-16T11:03:38;68.97;;;25.70;;
1977;SDS011;989;53.016;8.346;2022-12-16T11:06:41;56.25;;;25.85;;
1977;SDS011;989;53.016;8.346;2022-12-16T11:12:19;55.60;;;26.58;;
1977;SDS011;989;53.016;8.346;2022-12-16T11:18:15;66.07;;;26.25;;
1977;SDS011;989;53.016;8.346;2022-12-16T11:24:04;60.10;;;30.15;;
1977;SDS011;989;53.016;8.346;2022-12-16T11:26:53;59.20;;;29.58;;
1977;SDS011;989;53.016;8.346;2022-12-16T11:29:50;71.32;;;28.25;;
1977;SDS011;989;53.016;8.346;2022-12-16T11:32:48;60.88;;;28.80;;
1977;SDS011;989;53.016;8.346;2022-12-16T11:35:37;59.15;;;27.88;;
1977;SDS011;989;53.016;8.346;2022-12-16T11:38:27;58.05;;;26.73;;
1977;SDS011;989;53.016;8.346;2022-12-16T11:41:44;77.88;;;28.00;;
1977;SDS011;989;53.016;8.346;2022-12-16T11:44:35;64.60;;;25.67;;
1977;SDS011;989;53.016;8.346;2022-12-16T11:47:53;61.38;;;27.02;;
1977;SDS011;989;53.016;8.346;2022-12-16T11:50:51;51.72;;;25.55;;
1977;SDS011;989;53.016;8.346;2022-12-16T11:54:01;55.33;;;25.58;;
1977;SDS011;989;53.016;8.346;2022-12-16T11:56:56;65.45;;;27.38;;
1977;SDS011;989;53.016;8.346;2022-12-16T11:59:52;64.20;;;28.23;;
1977;SDS011;989;53.016;8.346;2022-12-16T12:12:10;63.53;;;27.42;;
1977;SDS011;989;53.016;8.346;2022-12-16T12:15:33;63.85;;;27.60;;
1977;SDS011;989;53.016;8.346;2022-12-16T12:18:44;61.83;;;30.48;;
1977;SDS011;989;53.016;8.346;2022-12-16T12:21:51;64.10;;;27.70;;
1977;SDS011;989;53.016;8.346;2022-12-16T12:31:47;62.08;;;29.20;;
1977;SDS011;989;53.016;8.346;2022-12-16T12:38:19;64.70;;;29.90;;
1977;SDS011;989;53.016;8.346;2022-12-16T12:47:26;77.80;;;29.10;;
1977;SDS011;989;53.016;8.346;2022-12-16T12:50:13;59.85;;;26.20;;
1977;SDS011;989;53.016;8.346;2022-12-16T12:53:10;63.85;;;27.85;;
1977;SDS011;989;53.016;8.346;2022-12-16T12:56:48;67.18;;;29.30;;
1977;SDS011;989;53.016;8.346;2022-12-16T12:59:46;59.28;;;27.80;;
1977;SDS011;989;53.016;8.346;2022-12-16T13:06:01;71.75;;;24.40;;
1977;SDS011;989;53.016;8.346;2022-12-16T13:11:34;64.93;;;24.95;;
1977;SDS011;989;53.016;8.346;2022-12-16T13:17:16;59.97;;;24.77;;
1977;SDS011;989;53.016;8.346;2022-12-16T13:23:35;58.83;;;26.20;;
1977;SDS011;989;53.016;8.346;2022-12-16T13:26:24;53.83;;;22.42;;
1977;SDS011;989;53.016;8.346;2022-12-16T13:40:52;72.60;;;25.90;;
1977;SDS011;989;53.016;8.346;2022-12-16T13:43:44;62.35;;;23.75;;
1977;SDS011;989;53.016;8.346;2022-12-16T13:46:47;63.35;;;24.88;;
1977;SDS011;989;53.016;8.346;2022-12-16T13:55:41;68.50;;;25.60;;
1977;SDS011;989;53.016;8.346;2022-12-16T13:58:43;63.60;;;26.50;;
1977;SDS011;989;53.016;8.346;2022-12-16T14:01:37;71.65;;;24.75;;
1977;SDS011;989;53.016;8.346;2022-12-16T14:04:27;58.33;;;23.67;;
1977;SDS011;989;53.016;8.346;2022-12-16T14:07:17;60.63;;;23.17;;
1977;SDS011;989;53.016;8.346;2022-12-16T14:10:05;78.13;;;27.15;;
1977;SDS011;989;53.016;8.346;2022-12-16T14:13:08;88.53;;;36.30;;
1977;SDS011;989;53.016;8.346;2022-12-16T14:16:21;68.25;;;27.80;;
1977;SDS011;989;53.016;8.346;2022-12-16T14:25:43;70.95;;;26.60;;
1977;SDS011;989;53.016;8.346;2022-12-16T14:28:34;52.95;;;24.15;;
1977;SDS011;989;53.016;8.346;2022-12-16T14:31:20;62.15;;;26.55;;
1977;SDS011;989;53.016;8.346;2022-12-16T14:34:18;51.03;;;23.17;;
1977;SDS011;989;53.016;8.346;2022-12-16T14:43:14;64.05;;;24.42;;
1977;SDS011;989;53.016;8.346;2022-12-16T14:46:03;73.05;;;25.10;;
1977;SDS011;989;53.016;8.346;2022-12-16T14:48:48;64.00;;;24.65;;
1977;SDS011;989;53.016;8.346;2022-12-16T14:51:34;64.35;;;26.45;;
1977;SDS011;989;53.016;8.346;2022-12-16T14:57:16;84.07;;;28.85;;
1977;SDS011;989;53.016;8.346;2022-12-16T15:02:51;50.58;;;23.45;;
1977;SDS011;989;53.016;8.346;2022-12-16T15:05:40;78.43;;;27.55;;
1977;SDS011;989;53.016;8.346;2022-12-16T15:08:26;81.38;;;26.45;;
1977;SDS011;989;53.016;8.346;2022-12-16T15:11:14;74.47;;;26.00;;
1977;SDS011;989;53.016;8.346;2022-12-16T15:14:04;66.00;;;27.50;;
1977;SDS011;989;53.016;8.346;2022-12-16T15:16:49;65.85;;;26.10;;
1977;SDS011;989;53.016;8.346;2022-12-16T15:19:42;72.15;;;26.88;;
1977;SDS011;989;53.016;8.346;2022-12-16T15:22:31;74.35;;;27.45;;
1977;SDS011;989;53.016;8.346;2022-12-16T15:25:24;77.85;;;28.30;;
1977;SDS011;989;53.016;8.346;2022-12-16T15:28:26;82.30;;;29.92;;
1977;SDS011;989;53.016;8.346;2022-12-16T15:31:32;61.92;;;27.20;;
1977;SDS011;989;53.016;8.346;2022-12-16T15:37:03;84.68;;;32.22;;
1977;SDS011;989;53.016;8.346;2022-12-16T15:39:58;73.00;;;29.08;;
1977;SDS011;989;53.016;8.346;2022-12-16T15:42:42;84.75;;;30.80;;
1977;SDS011;989;53.016;8.346;2022-12-16T15:45:34;71.55;;;29.40;;
1977;SDS011;989;53.016;8.346;2022-12-16T15:48:26;95.25;;;33.05;;
1977;SDS011;989;53.016;8.346;2022-12-16T15:51:57;85.60;;;27.25;;
1977;SDS011;989;53.016;8.346;2022-12-16T15:54:30;89.05;;;30.60;;
1977;SDS011;989;53.016;8.346;2022-12-16T16:00:21;66.05;;;26.65;;
1977;SDS011;989;53.016;8.346;2022-12-16T16:03:18;77.78;;;28.38;;
1977;SDS011;989;53.016;8.346;2022-12-16T16:06:18;63.03;;;25.95;;
1977;SDS011;989;53.016;8.346;2022-12-16T16:09:26;71.63;;;23.25;;
1977;SDS011;989;53.016;8.346;2022-12-16T16:12:14;80.05;;;27.15;;
1977;SDS011;989;53.016;8.346;2022-12-16T16:15:01;60.83;;;23.95;;
1977;SDS011;989;53.016;8.346;2022-12-16T16:17:50;69.15;;;25.48;;
1977;SDS011;989;53.016;8.346;2022-12-16T16:20:41;65.55;;;22.30;;
1977;SDS011;989;53.016;8.346;2022-12-16T16:23:26;61.63;;;24.63;;
1977;SDS011;989;53.016;8.346;2022-12-16T16:26:12;61.08;;;24.17;;
1977;SDS011;989;53.016;8.346;2022-12-16T16:28:58;54.15;;;22.15;;
1977;SDS011;989;53.016;8.346;2022-12-16T16:31:43;55.28;;;21.05;;
1977;SDS011;989;53.016;8.346;2022-12-16T16:34:27;66.57;;;24.27;;
1977;SDS011;989;53.016;8.346;2022-12-16T16:37:13;59.53;;;19.35;;
1977;SDS011;989;53.016;8.346;2022-12-16T16:39:59;60.08;;;23.17;;
1977;SDS011;989;53.016;8.346;2022-12-16T16:42:44;55.28;;;22.30;;
1977;SDS011;989;53.016;8.346;2022-12-16T16:45:29;58.47;;;21.02;;
1977;SDS011;989;53.016;8.346;2022-12-16T16:48:14;70.28;;;28.50;;
1977;SDS011;989;53.016;8.346;2022-12-16T16:51:00;52.65;;;20.83;;
1977;SDS011;989;53.016;8.346;2022-12-16T16:53:46;48.33;;;22.00;;
1977;SDS011;989;53.016;8.346;2022-12-16T16:56:32;48.58;;;20.13;;
1977;SDS011;989;53.016;8.346;2022-12-16T16:59:21;55.17;;;20.73;;
1977;SDS011;989;53.016;8.346;2022-12-16T17:02:20;52.25;;;21.45;;
1977;SDS011;989;53.016;8.346;2022-12-16T17:05:07;48.72;;;18.67;;
1977;SDS011;989;53.016;8.346;2022-12-16T17:07:53;46.83;;;19.17;;
1977;SDS011;989;53.016;8.346;2022-12-16T17:10:38;54.88;;;17.42;;
1977;SDS011;989;53.016;8.346;2022-12-16T17:13:22;43.33;;;19.20;;
1977;SDS011;989;53.016;8.346;2022-12-16T17:16:08;37.53;;;17.80;;
1977;SDS011;989;53.016;8.346;2022-12-16T17:18:53;50.80;;;21.08;;
1977;SDS011;989;53.016;8.346;2022-12-16T17:21:37;46.78;;;18.15;;
1977;SDS011;989;53.016;8.346;2022-12-16T17:24:22;46.03;;;19.63;;
1977;SDS011;989;53.016;8.346;2022-12-16T17:27:12;57.47;;;20.25;;
1977;SDS011;989;53.016;8.346;2022-12-16T17:29:59;34.35;;;17.65;;
1977;SDS011;989;53.016;8.346;2022-12-16T17:32:44;53.55;;;21.77;;
1977;SDS011;989;53.016;8.346;2022-12-16T17:35:28;63.67;;;18.10;;
1977;SDS011;989;53.016;8.346;2022-12-16T17:38:12;40.35;;;18.52;;
1977;SDS011;989;53.016;8.346;2022-12-16T17:40:57;45.80;;;17.88;;
1977;SDS011;989;53.016;8.346;2022-12-16T17:43:41;49.88;;;21.10;;
1977;SDS011;989;53.016;8.346;2022-12-16T17:46:26;35.72;;;16.27;;
1977;SDS011;989;53.016;8.346;2022-12-16T17:49:10;46.50;;;20.75;;
1977;SDS011;989;53.016;8.346;2022-12-16T17:51:54;56.83;;;24.60;;
1977;SDS011;989;53.016;8.346;2022-12-16T17:54:38;50.95;;;23.55;;
1977;SDS011;989;53.016;8.346;2022-12-16T17:57:23;69.15;;;24.33;;
1977;SDS011;989;53.016;8.346;2022-12-16T18:00:07;60.72;;;21.52;;
1977;SDS011;989;53.016;8.346;2022-12-16T18:02:52;62.97;;;22.92;;
1977;SDS011;989;53.016;8.346;2022-12-16T18:05:36;57.35;;;24.35;;
1977;SDS011;989;53.016;8.346;2022-12-16T18:08:21;50.10;;;20.13;;
1977;SDS011;989;53.016;8.346;2022-12-16T18:11:05;44.05;;;20.95;;
1977;SDS011;989;53.016;8.346;2022-12-16T18:13:49;51.38;;;20.73;;
1977;SDS011;989;53.016;8.346;2022-12-16T18:16:34;47.70;;;21.83;;
1977;SDS011;989;53.016;8.346;2022-12-16T18:19:18;43.35;;;18.13;;
1977;SDS011;989;53.016;8.346;2022-12-16T18:22:02;53.60;;;21.23;;
1977;SDS011;989;53.016;8.346;2022-12-16T18:24:47;53.47;;;19.58;;
1977;SDS011;989;53.016;8.346;2022-12-16T18:27:31;49.75;;;19.13;;
1977;SDS011;989;53.016;8.346;2022-12-16T18:30:15;56.72;;;23.08;;
1977;SDS011;989;53.016;8.346;2022-12-16T18:33:00;51.60;;;21.23;;
1977;SDS011;989;53.016;8.346;2022-12-16T18:35:44;70.55;;;26.60;;
1977;SDS011;989;53.016;8.346;2022-12-16T18:38:29;62.80;;;25.42;;
1977;SDS011;989;53.016;8.346;2022-12-16T18:41:18;77.10;;;26.90;;
1977;SDS011;989;53.016;8.346;2022-12-16T18:44:05;46.90;;;21.60;;
1977;SDS011;989;53.016;8.346;2022-12-16T18:46:52;59.53;;;22.15;;
1977;SDS011;989;53.016;8.346;2022-12-16T18:49:36;62.10;;;22.23;;
1977;SDS011;989;53.016;8.346;2022-12-16T18:52:21;68.72;;;25.63;;
1977;SDS011;989;53.016;8.346;2022-12-16T18:55:05;75.15;;;27.90;;
1977;SDS011;989;53.016;8.346;2022-12-16T18:57:50;65.28;;;29.77;;
1977;SDS011;989;53.016;8.346;2022-12-16T19:00:34;71.28;;;26.88;;
1977;SDS011;989;53.016;8.346;2022-12-16T19:03:19;63.00;;;24.58;;
1977;SDS011;989;53.016;8.346;2022-12-16T19:06:03;66.53;;;25.35;;
1977;SDS011;989;53.016;8.346;2022-12-16T19:08:48;68.22;;;27.98;;
1977;SDS011;989;53.016;8.346;2022-12-16T19:11:32;49.78;;;22.50;;